Terminal Aerodrome Forecast
Issued by NWS

Home | Current Version | Previous Version | Text Only | Print | Product List | Glossary On
Versions: 1 2 3 4 5 6 7 8 9 10 11 12
000
FTUS45 KRIW 020500
TAFCPR
TAF
KCPR 020520Z 0206/0306 VRB05KT P6SM SCT080 BKN150
     FM021400 36008KT P6SM SCT040 BKN080
     FM022000 02011G20KT P6SM VCSH BKN060 BKN100
     FM030500 02008KT P6SM BKN080=

USA.gov is the U.S. government's official web portal to all federal, state and local government web resources and services.